createdAt,value
2018-03-15T00:00:13.346Z,6.30
2018-03-15T00:02:40.373Z,6.30
2018-03-15T00:05:06.620Z,6.30
2018-03-15T00:07:33.906Z,6.30
2018-03-15T00:10:01.303Z,6.20
2018-03-15T00:12:28.536Z,6.20
2018-03-15T00:14:54.863Z,6.20
2018-03-15T00:17:21.135Z,6.20
2018-03-15T00:19:48.123Z,6.20
2018-03-15T00:22:14.399Z,6.10
2018-03-15T00:24:40.670Z,6.20
2018-03-15T00:27:07.544Z,6.20
2018-03-15T00:29:33.835Z,6.20
2018-03-15T00:32:01.370Z,6.20
2018-03-15T00:34:27.650Z,6.20
2018-03-15T00:36:53.899Z,6.20
2018-03-15T00:39:20.173Z,6.20
2018-03-15T00:41:47.190Z,6.20
2018-03-15T00:44:13.432Z,6.20
2018-03-15T00:46:40.621Z,6.30
2018-03-15T00:49:07.735Z,6.20
2018-03-15T00:51:33.983Z,6.20
2018-03-15T00:54:01.009Z,6.20
2018-03-15T00:56:27.667Z,6.20
2018-03-15T00:58:53.923Z,6.20
2018-03-15T01:01:20.939Z,6.20
2018-03-15T01:03:47.203Z,6.20
2018-03-15T01:06:13.482Z,6.10
2018-03-15T01:08:41.646Z,6.20
2018-03-15T01:11:08.300Z,6.20
2018-03-15T01:13:34.758Z,6.20
2018-03-15T01:16:02.027Z,6.10
2018-03-15T01:18:28.264Z,6.10
2018-03-15T01:20:55.271Z,6.10
2018-03-15T01:23:21.515Z,6.10
2018-03-15T01:25:47.851Z,6.10
2018-03-15T01:28:14.916Z,6.10
2018-03-15T01:30:41.207Z,6.10
2018-03-15T01:33:07.455Z,6.00
2018-03-15T01:35:34.495Z,6.10
2018-03-15T01:38:00.883Z,6.10
2018-03-15T01:40:27.892Z,6.00
2018-03-15T01:42:54.147Z,6.00
2018-03-15T01:45:20.417Z,6.00
2018-03-15T01:47:47.071Z,5.90
2018-03-15T01:50:13.364Z,6.00
2018-03-15T01:52:39.943Z,5.90
2018-03-15T01:55:06.230Z,5.90
2018-03-15T01:57:33.250Z,5.90
2018-03-15T01:59:59.978Z,5.90
2018-03-15T02:02:26.242Z,5.90
2018-03-15T02:04:52.515Z,5.80
2018-03-15T02:07:19.504Z,5.90
2018-03-15T02:09:45.820Z,5.90
2018-03-15T02:12:12.106Z,5.90
2018-03-15T02:14:38.438Z,5.80
2018-03-15T02:17:04.699Z,5.80
2018-03-15T02:19:31.106Z,5.80
2018-03-15T02:21:57.448Z,5.80
2018-03-15T02:24:23.677Z,5.80
2018-03-15T02:26:50.639Z,5.70
2018-03-15T02:29:16.897Z,5.70
2018-03-15T02:31:43.214Z,5.70
2018-03-15T02:34:09.508Z,5.70
2018-03-15T02:36:35.791Z,5.70
2018-03-15T02:39:02.117Z,5.70
2018-03-15T02:41:28.467Z,5.60
2018-03-15T02:43:55.298Z,5.60
2018-03-15T02:46:21.707Z,5.60
2018-03-15T02:48:47.979Z,5.70
2018-03-15T02:51:14.441Z,5.60
2018-03-15T02:53:42.097Z,5.60
2018-03-15T02:56:08.369Z,5.60
2018-03-15T02:58:34.647Z,5.60
2018-03-15T03:01:00.904Z,5.60
2018-03-15T03:03:28.087Z,5.60
2018-03-15T03:05:58.305Z,5.60
2018-03-15T03:08:24.565Z,5.60
2018-03-15T03:10:51.154Z,5.50
2018-03-15T03:13:19.303Z,5.50
2018-03-15T03:15:46.513Z,5.50
2018-03-15T03:18:14.793Z,5.50
2018-03-15T03:20:41.044Z,5.50
2018-03-15T03:23:07.803Z,5.50
2018-03-15T03:25:34.055Z,5.50
2018-03-15T03:28:00.311Z,5.40
2018-03-15T03:30:26.579Z,5.40
2018-03-15T03:32:53.780Z,5.40
2018-03-15T03:35:20.951Z,5.40
2018-03-15T03:37:48.148Z,5.40
2018-03-15T03:40:14.462Z,5.40
2018-03-15T03:42:41.042Z,5.40
2018-03-15T03:45:08.749Z,5.40
2018-03-15T03:47:35.865Z,5.40
2018-03-15T03:50:02.194Z,5.30
2018-03-15T03:52:31.068Z,5.40
2018-03-15T03:54:59.757Z,5.30
2018-03-15T03:57:27.761Z,5.30
2018-03-15T03:59:55.225Z,5.30
2018-03-15T04:02:21.595Z,5.30
2018-03-15T04:04:48.984Z,5.30
2018-03-15T04:07:16.112Z,5.30
2018-03-15T04:09:43.838Z,5.30
2018-03-15T04:12:11.296Z,5.40
2018-03-15T04:14:38.367Z,5.30
2018-03-15T04:17:04.712Z,5.30
2018-03-15T04:19:31.007Z,5.20
2018-03-15T04:21:57.352Z,5.20
2018-03-15T04:24:25.908Z,5.20
2018-03-15T04:26:52.199Z,5.20
2018-03-15T04:29:18.483Z,5.20
2018-03-15T04:31:45.552Z,5.20
2018-03-15T04:34:13.347Z,5.20
2018-03-15T04:36:39.870Z,5.20
2018-03-15T04:39:07.267Z,5.30
2018-03-15T04:41:33.614Z,5.30
2018-03-15T04:44:00.830Z,5.40
2018-03-15T04:46:27.143Z,5.20
2018-03-15T04:48:53.475Z,5.30
2018-03-15T04:51:19.771Z,5.30
2018-03-15T04:53:46.766Z,5.30
2018-03-15T04:56:13.079Z,5.20
2018-03-15T04:58:39.318Z,5.20
2018-03-15T05:01:06.030Z,5.20
2018-03-15T05:03:32.336Z,5.20
2018-03-15T05:05:58.611Z,5.10
2018-03-15T05:08:24.869Z,5.20
2018-03-15T05:10:51.148Z,5.10
2018-03-15T05:13:18.868Z,5.10
2018-03-15T05:15:48.886Z,5.10
2018-03-15T05:18:17.295Z,5.20
2018-03-15T05:20:44.665Z,5.20
2018-03-15T05:23:12.038Z,5.10
2018-03-15T05:25:39.256Z,5.10
2018-03-15T05:28:07.233Z,5.10
2018-03-15T05:30:33.588Z,5.10
2018-03-15T05:33:00.215Z,5.10
2018-03-15T05:35:27.233Z,5.10
2018-03-15T05:37:53.507Z,5.10
2018-03-15T05:40:20.504Z,5.00
2018-03-15T05:42:48.671Z,5.00
2018-03-15T05:45:14.916Z,5.00
2018-03-15T05:47:48.118Z,5.10
2018-03-15T05:50:14.740Z,5.10
2018-03-15T05:52:41.800Z,5.10
2018-03-15T05:55:09.169Z,5.10
2018-03-15T05:57:36.866Z,5.10
2018-03-15T06:00:04.004Z,5.20
2018-03-15T06:02:31.199Z,5.10
2018-03-15T06:04:57.695Z,5.20
2018-03-15T06:07:23.972Z,5.20
2018-03-15T06:09:50.665Z,5.20
2018-03-15T06:12:20.666Z,5.30
2018-03-15T06:14:47.324Z,5.30
2018-03-15T06:17:13.968Z,5.40
2018-03-15T06:19:40.468Z,5.40
2018-03-15T06:22:06.731Z,5.40
2018-03-15T06:24:33.847Z,5.40
2018-03-15T06:27:00.104Z,5.40
2018-03-15T06:29:28.039Z,5.40
2018-03-15T06:31:54.319Z,5.40
2018-03-15T06:34:20.663Z,5.50
2018-03-15T06:36:47.672Z,5.50
2018-03-15T06:39:13.939Z,5.50
2018-03-15T06:41:40.923Z,5.50
2018-03-15T06:44:07.195Z,5.50
2018-03-15T06:46:33.551Z,5.60
2018-03-15T06:49:00.589Z,5.60
2018-03-15T06:51:27.427Z,5.60
2018-03-15T06:53:53.699Z,5.70
2018-03-15T06:56:22.664Z,5.80
2018-03-15T06:58:50.167Z,5.80
2018-03-15T07:01:19.052Z,5.90
2018-03-15T07:03:52.656Z,6.10
2018-03-15T07:06:19.372Z,6.20
2018-03-15T07:08:47.522Z,6.30
2018-03-15T07:11:14.098Z,6.50
2018-03-15T07:13:40.387Z,6.60
2018-03-15T07:16:07.924Z,6.80
2018-03-15T07:18:35.063Z,7.10
2018-03-15T07:21:01.373Z,7.10
2018-03-15T07:23:27.660Z,7.10
2018-03-15T07:25:54.175Z,7.10
2018-03-15T07:28:20.474Z,7.10
2018-03-15T07:30:47.695Z,6.90
2018-03-15T07:36:43.468Z,6.90
2018-03-15T07:39:10.827Z,6.90
2018-03-15T07:41:37.414Z,6.90
2018-03-15T07:44:03.855Z,6.90
2018-03-15T07:46:33.797Z,7.00
2018-03-15T07:49:01.100Z,7.00
2018-03-15T07:51:28.426Z,7.30
2018-03-15T07:53:55.426Z,7.40
2018-03-15T07:56:22.416Z,7.40
2018-03-15T07:58:49.461Z,7.50
2018-03-15T08:01:16.447Z,7.60
2018-03-15T08:03:42.734Z,7.60
2018-03-15T08:06:09.176Z,7.70
2018-03-15T08:08:35.407Z,7.70
2018-03-15T08:11:01.694Z,7.80
2018-03-15T08:13:28.143Z,7.80
2018-03-15T08:15:59.300Z,7.90
2018-03-15T08:18:27.190Z,8.00
2018-03-15T08:20:53.837Z,8.10
2018-03-15T08:23:20.489Z,8.20
2018-03-15T08:25:47.498Z,8.00
2018-03-15T08:28:14.441Z,8.10
2018-03-15T08:30:40.895Z,8.30
2018-03-15T08:33:07.919Z,8.30
2018-03-15T08:35:34.562Z,8.30
2018-03-15T08:38:02.117Z,8.30
2018-03-15T08:40:28.681Z,8.20
2018-03-15T08:42:55.353Z,8.40
2018-03-15T08:45:21.707Z,8.50
2018-03-15T08:47:47.979Z,8.60
2018-03-15T08:50:14.234Z,8.60
2018-03-15T08:52:42.502Z,8.70
2018-03-15T08:55:08.820Z,8.70
2018-03-15T08:57:35.075Z,8.60
2018-03-15T09:00:02.248Z,8.80
2018-03-15T09:02:28.495Z,8.70
2018-03-15T09:04:55.656Z,8.80
2018-03-15T09:07:21.943Z,9.00
2018-03-15T09:09:48.928Z,9.10
2018-03-15T09:12:15.442Z,9.10
2018-03-15T09:14:42.288Z,9.10
2018-03-15T09:17:09.535Z,9.10
2018-03-15T09:19:36.818Z,9.20
2018-03-15T09:22:03.255Z,9.20
2018-03-15T09:24:29.494Z,9.20
2018-03-15T09:26:55.763Z,9.40
2018-03-15T09:29:22.295Z,9.60
2018-03-15T09:31:48.884Z,9.60
2018-03-15T09:34:15.250Z,9.70
2018-03-15T09:36:42.432Z,9.80
2018-03-15T09:39:09.436Z,9.80
2018-03-15T09:41:35.972Z,9.80
2018-03-15T09:44:02.584Z,10.00
2018-03-15T09:46:29.125Z,10.00
2018-03-15T09:48:55.424Z,10.00
2018-03-15T09:51:22.470Z,10.30
2018-03-15T09:53:49.465Z,10.30
2018-03-15T09:56:16.124Z,10.30
2018-03-15T09:58:42.513Z,10.50
2018-03-15T10:01:08.788Z,10.60
2018-03-15T10:03:35.418Z,10.70
2018-03-15T10:06:02.591Z,10.90
2018-03-15T10:08:28.883Z,10.70
2018-03-15T10:10:55.323Z,10.70
2018-03-15T10:13:22.438Z,10.80
2018-03-15T10:15:50.952Z,10.90
2018-03-15T10:18:17.866Z,10.90
2018-03-15T10:20:44.461Z,11.10
2018-03-15T10:23:11.247Z,11.30
2018-03-15T10:25:38.335Z,11.40
2018-03-15T10:28:04.648Z,11.40
2018-03-15T10:30:30.979Z,11.50
2018-03-15T10:33:03.544Z,11.60
2018-03-15T10:35:30.207Z,11.40
2018-03-15T10:37:56.557Z,11.60
2018-03-15T10:40:22.791Z,11.70
2018-03-15T10:42:49.080Z,11.50
2018-03-15T10:45:18.524Z,11.60
2018-03-15T10:47:45.637Z,11.60
2018-03-15T10:50:11.960Z,11.60
2018-03-15T10:52:38.362Z,11.60
2018-03-15T10:55:04.662Z,11.80
2018-03-15T10:57:32.026Z,11.90
2018-03-15T10:59:58.540Z,11.80
2018-03-15T11:02:30.844Z,11.80
2018-03-15T11:05:00.893Z,11.70
2018-03-15T11:07:29.069Z,11.80
2018-03-15T11:09:55.387Z,12.00
2018-03-15T11:12:21.765Z,12.20
2018-03-15T11:14:48.938Z,12.20
2018-03-15T11:17:18.675Z,12.20
2018-03-15T11:19:46.154Z,12.30
2018-03-15T11:22:17.696Z,12.30
2018-03-15T11:24:44.117Z,12.40
2018-03-15T11:27:11.568Z,12.50
2018-03-15T11:29:38.781Z,12.40
2018-03-15T11:32:06.298Z,12.30
2018-03-15T11:34:33.026Z,12.20
2018-03-15T11:37:01.079Z,12.20
2018-03-15T11:39:28.676Z,12.20
2018-03-15T11:41:55.056Z,12.40
2018-03-15T11:44:21.329Z,12.60
2018-03-15T11:46:49.447Z,12.70
2018-03-15T11:49:15.874Z,12.60
2018-03-15T11:51:43.117Z,12.70
2018-03-15T11:54:09.673Z,12.40
2018-03-15T11:56:35.951Z,12.20
2018-03-15T11:59:03.217Z,12.20
2018-03-15T12:01:29.578Z,12.10
2018-03-15T12:03:55.844Z,12.10
2018-03-15T12:06:22.112Z,12.00
2018-03-15T12:08:48.676Z,11.70
2018-03-15T12:11:16.148Z,11.60
2018-03-15T12:13:42.530Z,11.60
2018-03-15T12:16:09.580Z,11.60
2018-03-15T12:18:35.855Z,11.50
2018-03-15T12:21:09.922Z,11.50
2018-03-15T12:23:37.055Z,11.50
2018-03-15T12:26:03.429Z,11.50
2018-03-15T12:28:30.446Z,11.50
2018-03-15T12:30:57.477Z,11.50
2018-03-15T12:33:23.723Z,11.40
2018-03-15T12:35:50.100Z,11.50
2018-03-15T12:38:16.342Z,11.50
2018-03-15T12:40:42.635Z,11.50
2018-03-15T12:43:09.647Z,11.70
2018-03-15T12:45:36.341Z,11.60
2018-03-15T12:48:02.867Z,11.60
2018-03-15T12:50:29.153Z,11.50
2018-03-15T12:52:55.416Z,11.50
2018-03-15T12:55:22.488Z,11.50
2018-03-15T12:57:50.149Z,11.60
2018-03-15T13:00:16.736Z,11.60
2018-03-15T13:02:43.039Z,11.70
2018-03-15T13:05:11.232Z,11.80
2018-03-15T13:07:38.577Z,11.90
2018-03-15T13:10:05.983Z,12.20
2018-03-15T13:12:32.543Z,12.50
2018-03-15T13:15:01.614Z,12.90
2018-03-15T13:17:27.887Z,13.30
2018-03-15T13:19:54.128Z,13.50
2018-03-15T13:22:20.505Z,13.90
2018-03-15T13:24:47.503Z,14.10
2018-03-15T13:27:15.985Z,14.10
2018-03-15T13:29:42.247Z,14.10
2018-03-15T13:32:08.544Z,14.10
2018-03-15T13:34:37.796Z,14.20
2018-03-15T13:37:04.091Z,14.20
2018-03-15T13:39:31.279Z,14.00
2018-03-15T13:41:58.027Z,14.00
2018-03-15T13:44:25.050Z,13.90
2018-03-15T13:46:52.089Z,13.80
2018-03-15T13:49:19.511Z,13.70
2018-03-15T13:51:45.770Z,13.70
2018-03-15T13:54:12.198Z,13.50
2018-03-15T13:56:39.871Z,13.00
2018-03-15T13:59:06.259Z,13.00
2018-03-15T14:01:33.026Z,12.80
2018-03-15T14:03:59.354Z,12.60
2018-03-15T14:06:26.343Z,12.20
2018-03-15T14:08:53.639Z,12.20
2018-03-15T14:11:19.899Z,12.20
2018-03-15T14:13:47.187Z,12.00
2018-03-15T14:16:13.490Z,12.00
2018-03-15T14:18:40.012Z,12.00
2018-03-15T14:21:06.275Z,12.00
2018-03-15T14:23:32.612Z,12.00
2018-03-15T14:25:58.949Z,12.10
2018-03-15T14:28:25.723Z,12.00
2018-03-15T14:30:51.972Z,11.90
2018-03-15T14:33:19.155Z,11.90
2018-03-15T14:35:47.046Z,11.80
2018-03-15T14:38:15.524Z,11.80
2018-03-15T14:40:41.879Z,11.80
2018-03-15T14:43:08.263Z,11.80
2018-03-15T14:45:35.760Z,11.80
2018-03-15T14:48:02.432Z,11.80
2018-03-15T14:50:28.919Z,11.80
2018-03-15T14:52:55.419Z,11.70
2018-03-15T14:55:21.711Z,11.70
2018-03-15T14:57:48.454Z,11.70
2018-03-15T15:00:15.126Z,11.70
2018-03-15T15:02:42.324Z,11.70
2018-03-15T15:05:09.891Z,11.70
2018-03-15T15:07:36.712Z,11.70
2018-03-15T15:10:03.059Z,11.70
2018-03-15T15:12:30.591Z,11.70
2018-03-15T15:14:57.694Z,11.70
2018-03-15T15:17:23.935Z,11.70
2018-03-15T15:19:50.490Z,11.70
2018-03-15T15:22:16.929Z,11.60
2018-03-15T15:24:43.951Z,11.60
2018-03-15T15:27:10.224Z,11.60
2018-03-15T15:29:36.592Z,11.60
2018-03-15T15:32:03.627Z,11.60
2018-03-15T15:34:32.269Z,11.60
2018-03-15T15:37:01.717Z,11.60
2018-03-15T15:39:28.792Z,11.50
2018-03-15T15:41:55.296Z,11.50
2018-03-15T15:44:21.974Z,11.50
2018-03-15T15:46:48.330Z,11.50
2018-03-15T15:49:15.619Z,11.50
2018-03-15T15:51:42.752Z,11.50
2018-03-15T15:54:10.127Z,11.50
2018-03-15T15:56:36.503Z,11.50
2018-03-15T15:59:02.855Z,11.50
2018-03-15T16:01:30.299Z,11.50
2018-03-15T16:03:56.676Z,11.40
2018-03-15T16:06:22.947Z,11.40
2018-03-15T16:08:49.228Z,11.40
2018-03-15T16:11:15.567Z,11.50
2018-03-15T16:13:43.385Z,11.30
2018-03-15T16:16:09.947Z,11.30
2018-03-15T16:18:41.635Z,11.30
2018-03-15T16:21:07.974Z,11.30
2018-03-15T16:23:38.699Z,11.20
2018-03-15T16:26:04.985Z,11.20
2018-03-15T16:28:32.209Z,11.10
2018-03-15T16:31:00.019Z,11.10
2018-03-15T16:33:30.504Z,11.10
2018-03-15T16:35:57.610Z,11.10
2018-03-15T16:38:24.488Z,11.10
2018-03-15T16:40:51.498Z,11.00
2018-03-15T16:43:20.316Z,11.00
2018-03-15T16:45:47.152Z,11.00
2018-03-15T16:48:18.310Z,10.90
2018-03-15T16:50:45.060Z,10.90
2018-03-15T16:53:12.314Z,10.80
2018-03-15T16:55:39.628Z,10.80
2018-03-15T16:58:08.320Z,10.80
2018-03-15T17:00:34.842Z,10.80
2018-03-15T17:05:40.562Z,10.80
2018-03-15T17:08:22.804Z,10.80
2018-03-15T17:10:54.500Z,10.80
2018-03-15T17:13:21.904Z,10.80
2018-03-15T17:15:54.777Z,10.80
2018-03-15T17:18:25.517Z,10.80
2018-03-15T17:20:55.091Z,10.80
2018-03-15T17:23:21.594Z,10.80
2018-03-15T17:25:55.297Z,10.80
2018-03-15T17:28:23.394Z,10.80
2018-03-15T17:30:50.703Z,10.80
2018-03-15T17:33:17.011Z,10.70
2018-03-15T17:35:45.643Z,10.70
2018-03-15T17:38:13.443Z,10.70
2018-03-15T17:40:41.406Z,10.60
2018-03-15T17:43:10.031Z,10.60
2018-03-15T17:45:37.084Z,10.30
2018-03-15T17:48:04.340Z,10.20
2018-03-15T17:50:30.671Z,10.20
2018-03-15T17:52:58.344Z,10.10
2018-03-15T17:55:26.852Z,10.10
2018-03-15T17:57:54.123Z,9.90
2018-03-15T18:00:21.723Z,9.90
2018-03-15T18:02:48.882Z,9.90
2018-03-15T18:05:16.242Z,9.80
2018-03-15T18:07:42.553Z,9.80
2018-03-15T18:10:09.733Z,9.70
2018-03-15T18:12:37.671Z,9.60
2018-03-15T18:15:04.332Z,9.60
2018-03-15T18:17:30.595Z,9.50
2018-03-15T18:19:57.490Z,9.50
2018-03-15T18:22:23.748Z,9.40
2018-03-15T18:24:50.769Z,9.40
2018-03-15T18:27:17.096Z,9.40
2018-03-15T18:29:44.085Z,9.40
2018-03-15T18:32:11.116Z,9.30
2018-03-15T18:34:38.304Z,9.20
2018-03-15T18:37:05.324Z,9.20
2018-03-15T18:39:31.680Z,9.10
2018-03-15T18:41:58.149Z,9.10
2018-03-15T18:44:24.484Z,9.10
2018-03-15T18:46:50.783Z,9.10
2018-03-15T18:49:17.145Z,9.10
2018-03-15T18:51:43.407Z,9.10
2018-03-15T18:54:09.664Z,9.10
2018-03-15T18:56:36.672Z,9.10
2018-03-15T18:59:03.092Z,9.10
2018-03-15T19:01:29.360Z,9.00
2018-03-15T19:03:55.595Z,9.00
2018-03-15T19:06:21.878Z,9.00
2018-03-15T19:08:48.853Z,9.00
2018-03-15T19:11:15.179Z,9.00
2018-03-15T19:13:42.356Z,9.00
2018-03-15T19:16:09.420Z,8.90
2018-03-15T19:18:36.021Z,9.00
2018-03-15T19:21:02.357Z,8.90
2018-03-15T19:23:31.996Z,8.90
2018-03-15T19:25:58.292Z,8.90
2018-03-15T19:28:25.303Z,8.90
2018-03-15T19:30:51.608Z,8.90
2018-03-15T19:33:17.848Z,8.80
2018-03-15T19:35:44.103Z,8.80
2018-03-15T19:38:10.374Z,8.80
2018-03-15T19:40:36.683Z,8.80
2018-03-15T19:43:02.976Z,8.80
2018-03-15T19:45:29.268Z,8.80
2018-03-15T19:47:55.551Z,8.80
2018-03-15T19:50:24.535Z,8.80
2018-03-15T19:52:52.388Z,8.80
2018-03-15T19:55:18.651Z,8.80
2018-03-15T19:57:45.956Z,8.70
2018-03-15T20:00:12.271Z,8.70
2018-03-15T20:02:39.427Z,8.70
2018-03-15T20:05:06.172Z,8.70
2018-03-15T20:07:32.515Z,8.70
2018-03-15T20:09:58.771Z,8.70
2018-03-15T20:12:25.044Z,8.70
2018-03-15T20:14:51.312Z,8.70
2018-03-15T20:17:17.817Z,8.70
2018-03-15T20:19:44.103Z,8.70
2018-03-15T20:22:10.431Z,8.70
2018-03-15T20:24:36.941Z,8.70
2018-03-15T20:27:03.326Z,8.70
2018-03-15T20:29:29.719Z,8.70
2018-03-15T20:31:56.010Z,8.60
2018-03-15T20:34:22.829Z,8.60
2018-03-15T20:36:49.873Z,8.60
2018-03-15T20:39:22.955Z,8.70
2018-03-15T20:41:49.265Z,8.70
2018-03-15T20:44:15.551Z,8.60
2018-03-15T20:46:47.730Z,8.50
2018-03-15T20:49:14.152Z,8.50
2018-03-15T20:51:42.766Z,8.60
2018-03-15T20:54:09.152Z,8.60
2018-03-15T20:56:35.438Z,8.60
2018-03-15T20:59:01.857Z,8.50
2018-03-15T21:01:28.135Z,8.50
2018-03-15T21:03:54.451Z,8.50
2018-03-15T21:06:20.734Z,8.60
2018-03-15T21:08:47.019Z,8.50
2018-03-15T21:11:13.300Z,8.50
2018-03-15T21:13:39.600Z,8.60
2018-03-15T21:16:06.006Z,8.50
2018-03-15T21:18:32.298Z,8.50
2018-03-15T21:21:00.205Z,8.50
2018-03-15T21:23:26.479Z,8.50
2018-03-15T21:25:52.787Z,8.50
2018-03-15T21:28:19.053Z,8.50
2018-03-15T21:30:45.332Z,8.50
2018-03-15T21:33:11.868Z,8.50
2018-03-15T21:35:38.162Z,8.50
2018-03-15T21:38:04.428Z,8.50
2018-03-15T21:40:30.728Z,8.50
2018-03-15T21:42:56.997Z,8.50
2018-03-15T21:45:23.326Z,8.50
2018-03-15T21:47:50.227Z,8.50
2018-03-15T21:50:19.622Z,8.50
2018-03-15T21:52:46.556Z,8.50
2018-03-15T21:55:12.899Z,8.50
2018-03-15T21:57:40.214Z,8.50
2018-03-15T22:00:06.835Z,8.40
2018-03-15T22:02:33.187Z,8.50
2018-03-15T22:04:59.474Z,8.50
2018-03-15T22:07:25.703Z,8.50
2018-03-15T22:09:51.963Z,8.50
2018-03-15T22:12:18.896Z,8.40
2018-03-15T22:14:46.118Z,8.40
2018-03-15T22:17:13.918Z,8.40
2018-03-15T22:19:40.653Z,8.40
2018-03-15T22:22:07.604Z,8.40
2018-03-15T22:24:33.898Z,8.40
2018-03-15T22:27:00.155Z,8.40
2018-03-15T22:29:28.636Z,8.40
2018-03-15T22:31:56.074Z,8.40
2018-03-15T22:34:24.214Z,8.30
2018-03-15T22:36:52.026Z,8.30
2018-03-15T22:39:20.612Z,8.30
2018-03-15T22:41:47.484Z,8.30
2018-03-15T22:44:13.740Z,8.40
2018-03-15T22:46:40.279Z,8.30
2018-03-15T22:49:06.495Z,8.30
2018-03-15T22:51:32.736Z,8.40
2018-03-15T22:53:58.987Z,8.30
2018-03-15T22:56:25.247Z,8.30
2018-03-15T22:58:52.279Z,8.20
2018-03-15T23:01:18.511Z,8.20
2018-03-15T23:03:44.980Z,8.20
2018-03-15T23:06:11.224Z,8.20
2018-03-15T23:08:37.499Z,8.20
2018-03-15T23:11:03.819Z,8.20
2018-03-15T23:13:30.076Z,8.20
2018-03-15T23:15:56.304Z,8.20
2018-03-15T23:18:23.382Z,8.20
2018-03-15T23:20:49.657Z,8.20
2018-03-15T23:23:15.979Z,8.20
2018-03-15T23:25:42.245Z,8.20
2018-03-15T23:28:08.510Z,8.30
2018-03-15T23:30:34.757Z,8.20
2018-03-15T23:33:01.002Z,8.20
2018-03-15T23:35:27.236Z,8.30
2018-03-15T23:37:53.523Z,8.30
2018-03-15T23:40:19.846Z,8.30
2018-03-15T23:42:46.067Z,8.30
2018-03-15T23:45:12.402Z,8.30
2018-03-15T23:47:38.732Z,8.30
2018-03-15T23:50:05.000Z,8.30
2018-03-15T23:52:31.223Z,8.30
2018-03-15T23:54:57.476Z,8.30
2018-03-15T23:57:23.720Z,8.30
2018-03-15T23:59:50.108Z,8.30
